Time;durP1;ratioP1;P1;durP2;ratioP2;P2;SDS_P1;SDS_P2;PMS_P1;PMS_P2;Temp;Humidity;BMP_temperature;BMP_pressure;BME280_temperature;BME280_humidity;BME280_pressure;Samples;Min_cycle;Max_cycle;Signal;HPM_P1;HPM_P2
2022/08/25 00:01:11;;;;;;;5.78;3.30;;;;;;;22.16;100.00;-24432.53;4964388;28;20528;-62
2022/08/25 00:03:36;;;;;;;4.80;3.13;;;;;;;22.31;100.00;-24436.69;4960577;28;20197;-63
2022/08/25 00:06:04;;;;;;;5.82;3.53;;;;;;;21.91;100.00;-24425.75;4964882;28;20552;-61
2022/08/25 00:08:30;;;;;;;5.97;3.30;;;;;;;22.26;100.00;-24435.31;4965023;28;20186;-62
2022/08/25 00:10:55;;;;;;;6.88;3.00;;;;;;;21.95;100.00;-24426.88;4967079;28;20784;-60
2022/08/25 00:13:20;;;;;;;7.00;3.38;;;;;;;21.89;100.00;-24425.34;4962322;28;20205;-60
2022/08/25 00:15:46;;;;;;;6.65;3.38;;;;;;;22.05;100.00;-24429.50;4964236;28;20213;-62
2022/08/25 00:18:12;;;;;;;6.28;3.83;;;;;;;22.25;100.00;-24435.03;4966604;28;20567;-63
2022/08/25 00:20:37;;;;;;;5.00;3.20;;;;;;;21.85;100.00;-24424.22;4964935;28;20576;-63
2022/08/25 00:23:02;;;;;;;7.40;4.35;;;;;;;21.88;100.00;-24425.06;4967606;28;20664;-63
2022/08/25 00:25:28;;;;;;;9.75;4.07;;;;;;;21.23;100.00;-24407.19;4968063;28;20576;-63
2022/08/25 00:27:53;;;;;;;8.55;4.43;;;;;;;22.20;100.00;-24433.78;4964510;28;20177;-62
2022/08/25 00:30:19;;;;;;;8.23;3.80;;;;;;;22.09;100.00;-24430.59;4963631;28;20683;-62
2022/08/25 00:32:45;;;;;;;8.13;3.60;;;;;;;21.96;100.00;-24427.16;4964194;28;20209;-62
2022/08/25 00:35:11;;;;;;;7.97;3.50;;;;;;;22.45;100.00;-24440.56;4963512;28;20181;-63
2022/08/25 00:37:37;;;;;;;9.48;4.55;;;;;;;22.62;100.00;-24445.13;4965246;28;20212;-63
2022/08/25 00:40:04;;;;;;;7.80;3.50;;;;;;;22.70;100.00;-24447.50;4962978;28;20644;-62
2022/08/25 00:42:30;;;;;;;7.72;3.80;;;;;;;22.66;100.00;-24446.25;4967436;28;20185;-61
2022/08/25 00:44:57;;;;;;;11.85;3.78;;;;;;;22.46;100.00;-24440.97;4964288;28;20192;-61
2022/08/25 00:47:23;;;;;;;5.68;3.50;;;;;;;22.43;100.00;-24440.00;4966522;28;20193;-64
2022/08/25 00:49:53;;;;;;;5.40;3.33;;;;;;;22.29;100.00;-24436.28;4963339;28;20544;-63
2022/08/25 00:52:28;;;;;;;9.10;3.65;;;;;;;22.63;100.00;-24445.41;4963196;28;20267;-62
2022/08/25 00:55:07;;;;;;;8.40;3.97;;;;;;;22.47;100.00;-24441.25;4967965;28;21577;-62
2022/08/25 00:57:36;;;;;;;7.00;3.20;;;;;;;22.48;100.00;-24441.53;4965651;28;20277;-63
2022/08/25 01:00:15;;;;;;;4.57;2.78;;;;;;;22.50;100.00;-24441.81;4961522;28;20307;-63
2022/08/25 01:02:42;;;;;;;5.95;3.22;;;;;;;22.32;100.00;-24437.09;4962390;28;21981;-62
2022/08/25 01:05:07;;;;;;;8.05;3.08;;;;;;;22.52;100.00;-24442.38;4965842;28;20189;-63
2022/08/25 01:07:33;;;;;;;7.50;2.72;;;;;;;22.43;100.00;-24440.00;4961964;28;20284;-63
2022/08/25 01:09:59;;;;;;;6.05;3.15;;;;;;;22.24;100.00;-24434.88;4966378;28;20192;-61
2022/08/25 01:12:25;;;;;;;10.32;3.83;;;;;;;22.52;100.00;-24442.50;4962980;28;20221;-63
2022/08/25 01:14:52;;;;;;;9.35;3.00;;;;;;;22.42;100.00;-24439.75;4963669;28;20185;-63
2022/08/25 01:17:19;;;;;;;5.05;2.85;;;;;;;22.45;100.00;-24440.56;4967631;28;20319;-62
2022/08/25 01:19:44;;;;;;;5.63;3.20;;;;;;;22.23;100.00;-24434.47;4966252;28;20185;-63
2022/08/25 01:22:11;;;;;;;4.25;3.28;;;;;;;22.34;100.00;-24437.53;4966807;28;20196;-63
2022/08/25 01:24:53;;;;;;;6.10;3.30;;;;;;;22.37;100.00;-24438.34;4970526;28;20213;-63
2022/08/25 01:27:19;;;;;;;8.40;3.13;;;;;;;22.71;100.00;-24447.63;4965215;28;20272;-64
2022/08/25 01:29:44;;;;;;;7.55;3.40;;;;;;;22.12;100.00;-24431.44;4948934;28;20357;-62
2022/08/25 01:32:13;;;;;;;6.28;3.38;;;;;;;22.58;100.00;-24444.03;4964548;28;20201;-64
2022/08/25 01:34:41;;;;;;;7.53;3.80;;;;;;;22.51;100.00;-24442.09;4966554;28;20177;-64
2022/08/25 01:37:07;;;;;;;4.25;2.80;;;;;;;22.29;100.00;-24436.13;4965834;28;20181;-63
2022/08/25 01:39:37;;;;;;;6.93;4.13;;;;;;;22.44;100.00;-24440.44;4965130;28;20189;-62
2022/08/25 01:42:05;;;;;;;4.43;2.65;;;;;;;22.54;100.00;-24443.06;4966155;28;20746;-63
2022/08/25 01:44:34;;;;;;;6.78;3.08;;;;;;;22.25;100.00;-24435.16;4966044;28;20747;-63
2022/08/25 01:47:01;;;;;;;7.68;3.03;;;;;;;22.31;100.00;-24436.69;4965272;28;20617;-63
2022/08/25 01:49:26;;;;;;;5.65;2.78;;;;;;;22.42;100.00;-24439.88;4951264;28;20272;-64
2022/08/25 01:52:00;;;;;;;4.57;3.00;;;;;;;22.17;100.00;-24432.81;4967048;28;20296;-63
2022/08/25 01:54:25;;;;;;;4.40;3.03;;;;;;;22.51;100.00;-24442.09;4966835;28;20232;-64
2022/08/25 01:56:51;;;;;;;5.32;2.67;;;;;;;22.39;100.00;-24439.03;4969365;28;20197;-63
2022/08/25 01:59:19;;;;;;;3.75;2.90;;;;;;;22.34;100.00;-24437.53;4969040;28;20236;-64
2022/08/25 02:01:44;;;;;;;4.65;2.70;;;;;;;22.19;100.00;-24433.50;4966130;28;20185;-63
2022/08/25 02:04:11;;;;;;;5.15;2.80;;;;;;;22.41;100.00;-24439.47;4966700;28;20177;-63
2022/08/25 02:06:37;;;;;;;4.88;2.50;;;;;;;21.98;100.00;-24427.84;4964972;28;20189;-63
2022/08/25 02:09:09;;;;;;;6.90;2.72;;;;;;;22.10;100.00;-24431.03;4967920;28;20213;-63
2022/08/25 02:11:37;;;;;;;8.10;2.90;;;;;;;22.43;100.00;-24440.00;4962265;28;20225;-63
2022/08/25 02:14:03;;;;;;;5.32;3.38;;;;;;;22.33;100.00;-24437.38;4963683;28;20256;-64
2022/08/25 02:16:34;;;;;;;6.53;2.95;;;;;;;21.58;100.00;-24416.75;4966365;28;20193;-63
2022/08/25 02:19:00;;;;;;;4.15;2.70;;;;;;;22.37;100.00;-24438.50;4966620;28;20668;-63
2022/08/25 02:21:25;;;;;;;5.82;2.88;;;;;;;21.84;100.00;-24423.81;4967822;28;20185;-63
2022/08/25 02:23:52;;;;;;;5.50;3.03;;;;;;;22.17;100.00;-24432.81;4963313;28;20695;-64
2022/08/25 02:26:18;;;;;;;3.97;2.47;;;;;;;21.85;100.00;-24424.22;4966087;28;20597;-62
2022/08/25 02:28:48;;;;;;;4.60;2.92;;;;;;;22.01;100.00;-24428.66;4967102;28;20248;-63
2022/08/25 02:31:14;;;;;;;6.47;3.08;;;;;;;;;;4968076;28;20205;-62
2022/08/25 02:33:40;;;;;;;11.07;3.33;;;;;;;22.23;100.00;-24434.63;4970399;28;20193;-63
2022/08/25 02:36:06;;;;;;;4.32;2.50;;;;;;;22.22;100.00;-24434.34;4970855;28;20232;-62
2022/08/25 02:38:33;;;;;;;5.82;2.50;;;;;;;21.76;100.00;-24421.75;4970879;28;20189;-61
2022/08/25 02:41:00;;;;;;;3.25;2.45;;;;;;;21.84;100.00;-24423.81;4967242;28;20177;-63
2022/08/25 02:43:27;;;;;;;6.60;2.65;;;;;;;21.86;100.00;-24424.50;4961647;28;20189;-62
2022/08/25 02:45:54;;;;;;;7.20;2.70;;;;;;;21.84;100.00;-24423.81;4963699;28;20192;-64
2022/08/25 02:48:20;;;;;;;2.55;2.10;;;;;;;22.10;100.00;-24430.88;4959938;28;20190;-62
2022/08/25 02:50:51;;;;;;;2.92;2.05;;;;;;;22.22;100.00;-24434.19;4962243;28;20240;-62
2022/08/25 02:53:18;;;;;;;4.25;2.10;;;;;;;22.26;100.00;-24435.31;4965690;28;20180;-63
2022/08/25 02:55:44;;;;;;;5.22;2.60;;;;;;;22.15;100.00;-24432.41;4963722;28;20185;-62
2022/08/25 02:58:09;;;;;;;5.20;2.28;;;;;;;22.13;100.00;-24431.72;4966134;28;20245;-63
2022/08/25 03:00:35;;;;;;;3.53;2.00;;;;;;;21.94;100.00;-24426.72;4963862;28;20232;-62
2022/08/25 03:03:01;;;;;;;4.93;2.45;;;;;;;22.16;100.00;-24432.69;4965760;28;20185;-62
2022/08/25 03:05:27;;;;;;;2.95;1.95;;;;;;;21.80;100.00;-24422.84;4968033;28;20193;-62
2022/08/25 03:07:52;;;;;;;4.68;2.25;;;;;;;22.09;100.00;-24430.75;4972737;28;20273;-64
2022/08/25 03:10:19;;;;;;;5.25;2.00;;;;;;;22.00;100.00;-24428.38;4972972;28;20173;-64
2022/08/25 03:12:44;;;;;;;4.30;2.10;;;;;;;21.72;100.00;-24420.50;4972217;28;20221;-63
2022/08/25 03:15:13;;;;;;;4.95;2.05;;;;;;;22.10;100.00;-24431.03;4972786;28;20177;-62
2022/08/25 03:17:38;;;;;;;5.07;2.25;;;;;;;21.97;100.00;-24427.56;4971723;28;20181;-63
2022/08/25 03:20:05;;;;;;;6.97;2.55;;;;;;;21.54;100.00;-24415.66;4971491;28;20491;-64
2022/08/25 03:22:31;;;;;;;4.65;2.20;;;;;;;20.91;100.00;-24398.31;4968532;28;20201;-64
2022/08/25 03:26:52;;;;;;;4.35;2.10;;;;;;;21.82;100.00;-24423.41;4966171;28;20194;-62
2022/08/25 03:27:41;;;;;;;3.10;1.95;;;;;;;21.72;100.00;-24420.50;4963172;28;20600;-64
2022/08/25 03:30:08;;;;;;;4.20;2.20;;;;;;;21.67;100.00;-24419.25;4962031;28;20260;-64
2022/08/25 03:32:33;;;;;;;5.95;1.88;;;;;;;21.48;100.00;-24414.13;4965852;28;20213;-64
2022/08/25 03:35:00;;;;;;;2.78;1.90;;;;;;;21.77;100.00;-24421.88;4966457;28;20188;-65
2022/08/25 03:37:26;;;;;;;3.25;1.98;;;;;;;21.42;100.00;-24412.31;4965120;28;20682;-63
2022/08/25 03:39:51;;;;;;;4.57;2.10;;;;;;;21.80;100.00;-24422.84;4966362;28;20181;-64
2022/08/25 03:42:17;;;;;;;3.38;2.10;;;;;;;21.76;100.00;-24421.59;4965138;28;20892;-64
2022/08/25 03:44:42;;;;;;;3.63;2.10;;;;;;;21.68;100.00;-24419.53;4965102;28;20641;-62
2022/08/25 03:47:08;;;;;;;3.00;1.83;;;;;;;21.35;100.00;-24410.50;4963638;28;20563;-62
2022/08/25 03:49:34;;;;;;;5.60;2.20;;;;;;;21.40;100.00;-24411.91;4964924;28;20181;-63
2022/08/25 03:52:00;;;;;;;2.40;1.75;;;;;;;21.45;100.00;-24413.28;4964406;28;20212;-64
2022/08/25 03:54:26;;;;;;;5.00;2.20;;;;;;;21.50;100.00;-24414.53;4963077;28;20181;-62
2022/08/25 03:56:52;;;;;;;2.90;1.80;;;;;;;21.65;100.00;-24418.69;4964107;28;20185;-64
2022/08/25 03:59:17;;;;;;;4.63;2.03;;;;;;;21.86;100.00;-24424.38;4963559;28;20225;-63
2022/08/25 04:01:45;;;;;;;3.28;2.03;;;;;;;21.62;100.00;-24417.72;4963699;28;20181;-63
2022/08/25 04:04:12;;;;;;;4.35;1.90;;;;;;;21.79;100.00;-24422.56;4964069;28;20205;-63
2022/08/25 04:06:38;;;;;;;3.13;1.70;;;;;;;21.70;100.00;-24420.06;4964221;28;20796;-64
2022/08/25 04:09:04;;;;;;;5.82;2.25;;;;;;;21.75;100.00;-24421.31;4964369;28;20264;-62
2022/08/25 04:11:30;;;;;;;3.55;1.70;;;;;;;21.73;100.00;-24420.78;4964601;28;20217;-63
2022/08/25 04:13:57;;;;;;;3.20;2.03;;;;;;;22.04;100.00;-24429.34;4964823;28;20327;-63
2022/08/25 04:16:26;;;;;;;3.60;1.98;;;;;;;22.25;100.00;-24435.16;4969464;28;20212;-64
2022/08/25 04:18:54;;;;;;;2.95;1.63;;;;;;;22.09;100.00;-24430.59;4963251;28;20177;-64
2022/08/25 04:21:21;;;;;;;4.28;2.65;;;;;;;22.24;100.00;-24434.88;4951900;28;20228;-63
2022/08/25 04:23:48;;;;;;;4.22;2.15;;;;;;;22.64;100.00;-24445.81;4970001;28;21055;-63
2022/08/25 04:26:19;;;;;;;2.70;2.03;;;;;;;22.92;100.00;-24453.44;4968360;28;20221;-62
2022/08/25 04:28:45;;;;;;;2.85;1.75;;;;;;;23.06;100.00;-24457.31;4970521;28;20192;-63
2022/08/25 04:31:13;;;;;;;2.33;1.83;;;;;;;23.30;100.00;-24463.78;4970581;28;20197;-62
2022/08/25 04:33:40;;;;;;;9.30;2.10;;;;;;;23.78;100.00;-24477.03;4969244;28;20181;-63
2022/08/25 04:36:10;;;;;;;2.78;1.75;;;;;;;23.80;100.00;-24477.47;4972584;28;20177;-62
2022/08/25 04:38:37;;;;;;;2.92;1.75;;;;;;;23.93;100.00;-24480.91;4973407;28;20184;-64
2022/08/25 04:41:04;;;;;;;4.80;2.38;;;;;;;24.38;100.00;-24493.19;4973627;28;20671;-63
2022/08/25 04:43:31;;;;;;;2.22;1.75;;;;;;;24.55;100.00;-24498.00;4973276;28;20619;-63
2022/08/25 04:45:56;;;;;;;2.30;1.90;;;;;;;24.62;100.00;-24499.81;4975378;28;20209;-64
2022/08/25 04:48:22;;;;;;;3.45;1.70;;;;;;;24.58;100.00;-24498.69;4974102;28;20291;-62
2022/08/25 04:50:48;;;;;;;4.70;1.92;;;;;;;24.71;100.00;-24502.16;4974111;28;20276;-64
2022/08/25 04:53:15;;;;;;;3.72;2.15;;;;;;;24.85;100.00;-24506.00;4974850;28;20183;-64
2022/08/25 04:55:42;;;;;;;4.13;1.65;;;;;;;24.73;100.00;-24502.84;4968090;28;20182;-64
2022/08/25 04:58:08;;;;;;;2.22;1.58;;;;;;;24.42;100.00;-24494.44;4965431;28;20182;-62
2022/08/25 05:00:34;;;;;;;2.67;1.80;;;;;;;24.69;100.00;-24501.72;4971493;28;20232;-64
2022/08/25 05:03:01;;;;;;;2.42;1.70;;;;;;;24.83;100.00;-24505.59;4971595;28;20309;-64
2022/08/25 05:05:26;;;;;;;5.28;2.22;;;;;;;24.98;100.00;-24509.59;4971617;28;20195;-64
2022/08/25 05:07:53;;;;;;;3.20;1.85;;;;;;;24.82;100.00;-24505.31;4973317;28;20188;-64
2022/08/25 05:10:19;;;;;;;2.55;1.73;;;;;;;24.61;100.00;-24499.66;4972081;28;20731;-64
2022/08/25 05:12:44;;;;;;;2.05;1.70;;;;;;;24.51;100.00;-24496.91;4971394;28;20567;-64
2022/08/25 05:17:55;;;;;;;2.58;1.75;;;;;;;24.42;100.00;-24494.44;4973442;28;20200;-63
2022/08/25 05:20:20;;;;;;;3.17;1.90;;;;;;;24.46;100.00;-24495.53;4974373;28;20181;-63
2022/08/25 05:22:46;;;;;;;2.78;1.95;;;;;;;25.00;100.00;-24510.28;4973143;28;20197;-62
2022/08/25 05:25:13;;;;;;;2.67;1.73;;;;;;;24.65;100.00;-24500.75;4973377;28;20182;-63
2022/08/25 05:27:39;;;;;;;4.53;2.58;;;;;;;25.01;100.00;-24510.41;4973552;28;20235;-64
2022/08/25 05:30:06;;;;;;;2.92;2.17;;;;;;;24.79;100.00;-24504.47;4973604;28;20184;-62
2022/08/25 05:32:31;;;;;;;7.18;1.98;;;;;;;25.36;100.00;-24520.03;4973729;28;20217;-64
2022/08/25 05:34:57;;;;;;;3.22;2.35;;;;;;;25.29;100.00;-24518.13;4973745;28;20263;-62
2022/08/25 05:37:22;;;;;;;2.65;2.17;;;;;;;25.21;100.00;-24515.78;4974277;28;20172;-63
2022/08/25 05:39:48;;;;;;;3.10;2.38;;;;;;;25.29;100.00;-24518.13;4974628;28;20184;-63
2022/08/25 05:42:13;;;;;;;4.78;2.70;;;;;;;25.48;100.00;-24523.34;4973959;28;20563;-63
2022/08/25 05:44:38;;;;;;;3.85;2.78;;;;;;;25.25;100.00;-24516.88;4974057;28;20165;-62
2022/08/25 05:47:04;;;;;;;5.07;2.80;;;;;;;25.70;100.00;-24529.13;4974075;28;20220;-63
2022/08/25 05:49:29;;;;;;;5.72;3.45;;;;;;;25.68;100.00;-24528.72;4973791;28;20205;-65
2022/08/25 05:51:55;;;;;;;4.55;2.92;;;;;;;25.56;100.00;-24525.28;4973586;28;20203;-63
2022/08/25 05:54:20;;;;;;;5.75;3.20;;;;;;;25.90;100.00;-24534.63;4974529;28;20224;-64
2022/08/25 05:56:46;;;;;;;5.45;3.40;;;;;;;26.03;100.00;-24538.19;4972960;28;20228;-61
2022/08/25 05:59:11;;;;;;;9.90;4.45;;;;;;;25.81;100.00;-24532.16;4973675;28;20225;-62
2022/08/25 06:04:21;;;;;;;10.20;3.60;;;;;;;26.25;100.00;-24544.25;4988306;28;20713;-63
2022/08/25 06:06:47;;;;;;;11.75;4.20;;;;;;;26.11;100.00;-24540.41;4974266;28;20198;-64
2022/08/25 06:09:13;;;;;;;6.47;3.72;;;;;;;25.73;100.00;-24530.09;4984040;28;20196;-63
2022/08/25 06:11:40;;;;;;;7.28;3.75;;;;;;;26.42;100.00;-24548.63;4993077;28;20193;-62
2022/08/25 06:14:09;;;;;;;8.07;4.43;;;;;;;26.24;100.00;-24543.97;4993697;28;20203;-62
2022/08/25 06:16:34;;;;;;;6.18;4.10;;;;;;;26.71;100.00;-24556.75;4994025;28;20265;-62
2022/08/25 06:19:00;;;;;;;10.98;4.22;;;;;;;26.35;100.00;-24547.00;4993479;28;20181;-61
2022/08/25 06:21:26;;;;;;;6.32;4.05;;;;;;;26.64;100.00;-24554.69;4993186;28;20177;-61
2022/08/25 06:23:51;;;;;;;8.23;4.00;;;;;;;26.47;100.00;-24550.00;4993273;28;20204;-62
2022/08/25 06:26:17;;;;;;;7.80;3.78;;;;;;;26.69;100.00;-24556.06;4992583;28;20177;-62
2022/08/25 06:28:42;;;;;;;5.43;3.80;;;;;;;26.70;100.00;-24556.47;4993356;28;20172;-62
2022/08/25 06:31:08;;;;;;;8.10;4.07;;;;;;;27.18;100.00;-24569.38;4993345;28;20237;-61
2022/08/25 06:33:34;;;;;;;6.97;3.90;;;;;;;27.44;100.00;-24576.34;4993024;28;20627;-63
2022/08/25 06:35:59;;;;;;;8.38;3.80;;;;;;;27.17;100.00;-24569.09;4993078;28;20192;-62
2022/08/25 06:38:26;;;;;;;8.15;4.13;;;;;;;26.87;100.00;-24561.00;4992978;28;20179;-62
2022/08/25 06:40:52;;;;;;;12.23;4.60;;;;;;;27.03;100.00;-24565.38;4992371;28;20180;-61
2022/08/25 06:43:19;;;;;;;6.90;3.80;;;;;;;26.96;100.00;-24563.47;4993038;28;20176;-62
2022/08/25 06:45:45;;;;;;;7.38;4.15;;;;;;;27.36;100.00;-24574.31;4993156;28;20204;-63
2022/08/25 06:48:10;;;;;;;7.40;4.00;;;;;;;27.28;100.00;-24572.09;4992912;28;20603;-62
2022/08/25 06:50:40;;;;;;;7.50;4.38;;;;;;;27.40;100.00;-24575.41;4992398;28;20179;-62
2022/08/25 06:53:06;;;;;;;8.95;4.60;;;;;;;27.60;100.00;-24580.75;4992148;28;20228;-61
2022/08/25 06:55:33;;;;;;;8.82;4.43;;;;;;;27.38;100.00;-24574.72;4992611;28;20173;-62
2022/08/25 06:57:59;;;;;;;7.03;4.32;;;;;;;27.56;100.00;-24579.66;4992316;28;20275;-61
2022/08/25 07:00:25;;;;;;;8.77;4.35;;;;;;;27.29;100.00;-24572.25;4992478;28;20331;-61
2022/08/25 07:02:50;;;;;;;7.68;4.28;;;;;;;27.61;100.00;-24581.16;4992586;28;20600;-63
2022/08/25 07:05:15;;;;;;;9.73;3.92;;;;;;;27.57;100.00;-24580.06;4992293;28;20701;-62
2022/08/25 07:07:43;;;;;;;7.72;4.63;;;;;;;27.44;100.00;-24576.34;4992450;28;20169;-62
2022/08/25 07:10:09;;;;;;;12.45;5.53;;;;;;;27.91;100.00;-24589.25;4992746;28;20184;-62
2022/08/25 07:12:34;;;;;;;15.85;4.65;;;;;;;27.65;100.00;-24582.13;4992684;28;20192;-63
2022/08/25 07:15:00;;;;;;;8.07;4.93;;;;;;;28.01;100.00;-24591.97;4992344;28;20181;-62
2022/08/25 07:17:26;;;;;;;19.60;5.60;;;;;;;27.58;100.00;-24580.19;4992933;28;20173;-61
2022/08/25 07:19:51;;;;;;;11.20;5.18;;;;;;;27.62;100.00;-24581.28;4992098;28;20263;-62
2022/08/25 07:22:17;;;;;;;9.30;5.22;;;;;;;28.15;100.00;-24595.69;4992262;28;20203;-62
2022/08/25 07:24:42;;;;;;;11.02;5.55;;;;;;;28.07;100.00;-24593.47;4992148;28;20658;-62
2022/08/25 07:27:08;;;;;;;11.90;5.20;;;;;;;27.91;100.00;-24589.25;4992628;28;20173;-62
2022/08/25 07:29:37;;;;;;;9.88;5.55;;;;;;;28.30;100.00;-24599.78;4992310;28;20168;-63
2022/08/25 07:32:03;;;;;;;10.18;4.93;;;;;;;28.14;100.00;-24595.25;4992111;28;20255;-62
2022/08/25 07:37:13;;;;;;;10.07;5.00;;;;;;;28.51;100.00;-24605.38;4972012;28;20742;-61
2022/08/25 07:39:39;;;;;;;8.57;5.65;;;;;;;28.52;100.00;-24605.78;4988592;28;20188;-63
2022/08/25 07:42:05;;;;;;;8.43;4.78;;;;;;;28.42;100.00;-24603.06;4973536;28;20530;-62
2022/08/25 07:44:30;;;;;;;8.95;5.13;;;;;;;28.51;100.00;-24605.38;4975482;28;20188;-62
2022/08/25 07:46:56;;;;;;;8.77;4.95;;;;;;;28.78;100.00;-24612.78;4978401;28;20179;-61
2022/08/25 07:49:23;;;;;;;10.30;5.28;;;;;;;29.07;100.00;-24620.44;4983743;28;20662;-63
2022/08/25 07:51:50;;;;;;;7.22;4.82;;;;;;;28.85;100.00;-24614.69;4972598;28;20263;-61
2022/08/25 07:54:16;;;;;;;11.00;5.15;;;;;;;29.08;100.00;-24620.69;4985728;28;20182;-60
2022/08/25 07:56:42;;;;;;;9.38;5.38;;;;;;;29.38;100.00;-24629.03;4992076;28;20177;-61
2022/08/25 07:59:09;;;;;;;10.35;5.82;;;;;;;29.23;100.00;-24624.78;4991920;28;20654;-62
2022/08/25 08:01:34;;;;;;;9.15;4.85;;;;;;;29.39;100.00;-24629.16;4991788;28;20173;-63
2022/08/25 08:04:00;;;;;;;8.45;5.05;;;;;;;29.52;100.00;-24632.59;4991751;28;20246;-63
2022/08/25 08:06:26;;;;;;;8.80;5.05;;;;;;;29.26;100.00;-24625.63;4991687;28;20247;-62
2022/08/25 08:08:52;;;;;;;15.80;6.72;;;;;;;29.33;100.00;-24627.66;4991930;28;20191;-62
2022/08/25 08:11:25;;;;;;;10.95;5.57;;;;;;;29.37;100.00;-24628.75;4995288;28;20229;-63
2022/08/25 08:13:53;;;;;;;7.85;5.15;;;;;;;29.60;100.00;-24634.91;4995889;28;20176;-61
2022/08/25 08:16:20;;;;;;;8.65;4.95;;;;;;;29.81;100.00;-24640.63;4995317;28;20234;-62
2022/08/25 08:18:46;;;;;;;7.43;4.57;;;;;;;29.38;100.00;-24628.91;4995406;28;20184;-63
2022/08/25 08:21:17;;;;;;;14.10;5.55;;;;;;;29.83;100.00;-24641.03;4995595;28;20203;-63
2022/08/25 08:23:43;;;;;;;9.30;4.97;;;;;;;29.44;100.00;-24630.53;4995549;28;20172;-63
2022/08/25 08:26:09;;;;;;;8.40;4.55;;;;;;;29.73;100.00;-24638.44;4995479;28;20172;-62
2022/08/25 08:28:34;;;;;;;9.35;5.18;;;;;;;29.86;100.00;-24641.84;4995495;28;20179;-62
2022/08/25 08:31:00;;;;;;;10.00;5.22;;;;;;;30.05;100.00;-24647.03;4995065;28;20235;-62
2022/08/25 08:33:27;;;;;;;9.27;5.65;;;;;;;30.03;100.00;-24646.38;4995011;28;20555;-63
2022/08/25 08:36:02;;;;;;;12.32;5.10;;;;;;;30.08;100.00;-24647.72;4995530;28;20160;-62
2022/08/25 08:38:28;;;;;;;8.25;4.95;;;;;;;29.98;100.00;-24645.13;4995601;28;20175;-62
2022/08/25 08:44:17;;;;;;;8.52;5.15;;;;;;;30.59;100.00;-24661.63;4995276;28;20191;-62
2022/08/25 08:46:50;;;;;;;8.38;5.20;;;;;;;30.58;100.00;-24661.22;4995102;28;20291;-63
2022/08/25 08:49:32;;;;;;;8.10;4.10;;;;;;;30.18;100.00;-24650.59;4995495;28;20176;-62
2022/08/25 08:52:00;;;;;;;10.52;5.03;;;;;;;30.31;100.00;-24654.00;4994561;28;20192;-62
2022/08/25 08:54:33;;;;;;;7.78;4.55;;;;;;;30.39;100.00;-24656.03;4976595;28;20174;-63
2022/08/25 08:57:15;;;;;;;11.95;4.78;;;;;;;30.87;100.00;-24668.97;4956018;29;20162;-61
2022/08/25 08:59:53;;;;;;;8.65;4.03;;;;;;;30.56;100.00;-24660.69;4955437;28;20288;-61
2022/08/25 09:02:30;;;;;;;7.78;4.22;;;;;;;30.71;99.75;-24664.75;4955703;29;20165;-61
2022/08/25 09:05:00;;;;;;;8.18;4.22;;;;;;;30.20;100.00;-24651.00;4955632;29;20173;-61
2022/08/25 09:07:34;;;;;;;10.82;4.97;;;;;;;30.29;100.00;-24653.59;4955669;29;20161;-61
2022/08/25 09:10:00;;;;;;;7.95;4.60;;;;;;;30.15;100.00;-24649.78;4955668;29;20181;-61
2022/08/25 09:12:39;;;;;;;13.10;4.25;;;;;;;30.25;100.00;-24652.50;4955762;29;20189;-62
2022/08/25 09:18:34;;;;;;;8.73;4.18;;;;;;;30.44;100.00;-24657.53;4942984;29;20559;-62
2022/08/25 09:21:08;;;;;;;10.00;4.75;;;;;;;30.78;100.00;-24666.66;4954503;28;20718;-61
2022/08/25 09:23:59;;;;;;;5.82;3.72;;;;;;;30.90;88.56;-24669.78;4955042;29;20195;-61
2022/08/25 09:26:47;;;;;;;5.82;3.65;;;;;;;30.65;86.58;-24663.25;4952408;28;20190;-62
2022/08/25 09:29:18;;;;;;;6.68;3.78;;;;;;;30.64;84.96;-24662.84;4955912;29;20260;-62
2022/08/25 09:31:43;;;;;;;7.88;3.63;;;;;;;30.52;85.92;-24659.72;4955142;29;20703;-62
2022/08/25 09:34:16;;;;;;;8.00;3.75;;;;;;;30.67;86.17;-24663.66;4955268;28;20173;-62
2022/08/25 09:36:41;;;;;;;8.50;3.90;;;;;;;31.03;86.26;-24673.34;4955566;29;20209;-61
2022/08/25 09:39:07;;;;;;;7.30;4.20;;;;;;;31.16;84.40;-24676.88;4955439;29;20260;-61
2022/08/25 09:41:44;;;;;;;8.80;3.83;;;;;;;31.52;82.50;-24686.53;4955376;29;20189;-62
2022/08/25 09:44:31;;;;;;;11.18;4.45;;;;;;;31.24;80.60;-24679.06;4955064;29;20174;-62
2022/08/25 09:47:06;;;;;;;8.30;4.10;;;;;;;31.11;82.30;-24675.66;4955267;29;20555;-62
2022/08/25 09:49:41;;;;;;;8.05;3.67;;;;;;;31.40;80.20;-24683.28;4955538;29;20292;-61
2022/08/25 09:52:31;;;;;;;9.73;4.25;;;;;;;31.45;80.43;-24684.75;4955032;29;20193;-62
2022/08/25 09:55:15;;;;;;;10.32;3.72;;;;;;;31.45;77.38;-24684.75;4955229;29;20600;-59
2022/08/25 09:57:43;;;;;;;12.18;4.95;;;;;;;31.42;83.49;-24683.81;4955424;29;20169;-61
2022/08/25 10:00:38;;;;;;;8.35;4.13;;;;;;;31.79;78.55;-24693.75;4954717;28;20221;-62
2022/08/25 10:03:09;;;;;;;8.23;3.47;;;;;;;31.80;78.10;-24694.16;4954896;29;20177;-63
2022/08/25 10:05:48;;;;;;;7.28;3.47;;;;;;;31.89;77.28;-24696.59;4955225;29;20182;-62
2022/08/25 10:08:51;;;;;;;8.32;3.40;;;;;;;32.30;74.85;-24707.59;4955029;29;20192;-62
2022/08/25 10:11:38;;;;;;;9.02;3.63;;;;;;;32.06;79.65;-24701.06;4954358;29;20209;-62
2022/08/25 10:14:16;;;;;;;10.80;4.00;;;;;;;32.14;76.81;-24703.25;4955088;29;20261;-63
2022/08/25 10:16:42;;;;;;;11.35;4.07;;;;;;;32.04;76.51;-24700.41;4954547;29;20177;-62
2022/08/25 10:19:27;;;;;;;5.07;3.30;;;;;;;31.85;76.03;-24695.38;4954571;29;20166;-62
2022/08/25 10:22:07;;;;;;;7.95;3.47;;;;;;;32.09;77.21;-24701.88;4955081;29;20173;-62
2022/08/25 10:24:33;;;;;;;11.65;3.22;;;;;;;32.15;77.26;-24703.38;4954629;29;20173;-62
2022/08/25 10:27:02;;;;;;;6.40;3.20;;;;;;;32.06;71.14;-24701.06;4954324;29;20264;-61
2022/08/25 10:29:47;;;;;;;9.48;3.60;;;;;;;32.06;70.56;-24700.94;4954667;29;20174;-62
2022/08/25 10:32:27;;;;;;;9.57;3.50;;;;;;;32.35;68.96;-24708.94;4954032;28;20684;-61
2022/08/25 10:34:55;;;;;;;6.05;3.20;;;;;;;31.83;66.40;-24694.81;4954715;29;20177;-61
2022/08/25 10:37:51;;;;;;;12.50;3.95;;;;;;;31.79;68.01;-24693.88;4954326;29;20688;-61
2022/08/25 10:40:46;;;;;;;18.67;3.85;;;;;;;32.23;70.74;-24705.69;4954510;29;20181;-62
2022/08/25 10:43:39;;;;;;;4.72;2.78;;;;;;;32.62;68.39;-24716.13;4953400;28;20628;-63
2022/08/25 10:46:23;;;;;;;9.00;2.83;;;;;;;33.10;65.35;-24729.03;4954285;29;20637;-62
2022/08/25 10:49:17;;;;;;;5.65;2.65;;;;;;;32.61;67.06;-24715.72;4954231;29;20215;-62
2022/08/25 10:52:00;;;;;;;14.77;3.13;;;;;;;33.01;65.24;-24726.44;4953153;28;20217;-63
2022/08/25 10:55:05;;;;;;;4.78;2.70;;;;;;;33.53;61.88;-24740.41;4954828;29;20173;-62
2022/08/25 10:57:53;;;;;;;5.88;3.05;;;;;;;33.12;61.88;-24729.44;4954463;29;20189;-60
2022/08/25 11:00:22;;;;;;;6.90;2.80;;;;;;;32.90;66.24;-24723.47;4954045;29;20228;-62
2022/08/25 11:03:02;;;;;;;6.70;3.10;;;;;;;32.75;65.38;-24719.53;4953858;29;20177;-61
2022/08/25 11:05:39;;;;;;;7.45;3.22;;;;;;;32.86;67.94;-24722.66;4953793;29;20181;-60
2022/08/25 11:08:11;;;;;;;6.20;3.10;;;;;;;32.98;67.15;-24725.63;4954116;29;20177;-61
2022/08/25 11:10:45;;;;;;;9.43;3.20;;;;;;;32.64;67.32;-24716.69;4953794;29;20181;-61
2022/08/25 11:13:30;;;;;;;5.25;3.30;;;;;;;31.78;65.84;-24693.59;4953893;29;20217;-61
2022/08/25 11:16:02;;;;;;;7.60;3.42;;;;;;;30.97;69.00;-24671.69;4965156;28;20187;-60
2022/08/25 11:18:30;;;;;;;9.40;3.22;;;;;;;30.75;70.39;-24665.72;4972994;28;20242;-62
2022/08/25 11:21:14;;;;;;;5.53;3.10;;;;;;;31.38;65.34;-24682.88;4973000;28;20263;-63
2022/08/25 11:23:57;;;;;;;11.52;4.20;;;;;;;31.78;70.00;-24693.59;4973064;28;20719;-61
2022/08/25 11:26:33;;;;;;;9.05;3.38;;;;;;;32.15;69.31;-24703.38;4973646;28;20216;-61
2022/08/25 11:29:11;;;;;;;8.48;2.88;;;;;;;32.98;67.29;-24725.63;4972927;28;20628;-63
2022/08/25 11:31:41;;;;;;;9.82;3.47;;;;;;;33.41;65.60;-24737.16;4972813;28;20284;-61
2022/08/25 11:34:13;;;;;;;6.50;2.83;;;;;;;33.35;59.48;-24735.53;4973260;28;20501;-63
2022/08/25 11:36:42;;;;;;;9.13;2.83;;;;;;;33.48;57.77;-24739.06;4972685;28;20192;-62
2022/08/25 11:39:25;;;;;;;11.00;4.25;;;;;;;32.74;64.16;-24719.25;4972981;28;20184;-63
2022/08/25 11:42:34;;;;;;;5.38;3.45;;;;;;;33.23;60.42;-24732.41;4972968;28;20188;-63
2022/08/25 11:45:18;;;;;;;8.13;2.83;;;;;;;32.41;57.95;-24710.44;4975327;28;20164;-59